createdAt,value
2018-10-16T00:01:25.052Z,100364.12
2018-10-16T00:03:53.656Z,100369.53
2018-10-16T00:06:21.828Z,100363.22
2018-10-16T00:08:49.940Z,100365.22
2018-10-16T00:11:18.082Z,100361.24
2018-10-16T00:13:46.186Z,100359.09
2018-10-16T00:16:14.308Z,100357.23
2018-10-16T00:18:42.438Z,100351.09
2018-10-16T00:21:10.587Z,100348.90
2018-10-16T00:23:38.753Z,100352.90
2018-10-16T00:26:06.980Z,100357.55
2018-10-16T00:28:35.288Z,100352.63
2018-10-16T00:31:03.423Z,100354.52
2018-10-16T00:33:31.667Z,100354.95
2018-10-16T00:35:59.821Z,100351.12
2018-10-16T00:38:27.971Z,100354.64
2018-10-16T00:40:56.099Z,100366.89
2018-10-16T00:43:24.235Z,100373.95
2018-10-16T00:45:52.397Z,100381.16
2018-10-16T00:48:20.527Z,100379.91
2018-10-16T00:50:48.655Z,100375.16
2018-10-16T00:53:16.767Z,100372.66
2018-10-16T00:55:44.905Z,100378.70
2018-10-16T00:58:13.019Z,100378.23
2018-10-16T01:00:41.161Z,100382.32
2018-10-16T01:03:09.528Z,100378.70
2018-10-16T01:05:37.849Z,100375.53
2018-10-16T01:08:06.273Z,100380.91
2018-10-16T01:10:34.435Z,100385.88
2018-10-16T01:13:03.045Z,100377.41
2018-10-16T01:15:31.177Z,100379.04
2018-10-16T01:18:00.349Z,100377.14
2018-10-16T01:20:29.582Z,100374.46
2018-10-16T01:22:58.168Z,100379.33
2018-10-16T01:25:26.422Z,100383.14
2018-10-16T01:27:54.618Z,100382.37
2018-10-16T01:30:22.759Z,100370.34
2018-10-16T01:32:50.889Z,100367.07
2018-10-16T01:35:19.079Z,100360.34
2018-10-16T01:37:47.248Z,100362.16
2018-10-16T01:40:15.550Z,100350.65
2018-10-16T01:42:43.690Z,100355.83
2018-10-16T01:45:11.863Z,100357.17
2018-10-16T01:47:40.022Z,100355.36
2018-10-16T01:50:08.605Z,100363.14
2018-10-16T01:52:36.774Z,100365.02
2018-10-16T01:55:05.192Z,100358.89
2018-10-16T01:57:33.333Z,100362.36
2018-10-16T02:00:01.503Z,100355.81
2018-10-16T02:02:29.697Z,100355.17
2018-10-16T02:04:58.017Z,100355.66
2018-10-16T02:07:26.226Z,100364.17
2018-10-16T02:09:54.378Z,100357.69
2018-10-16T02:12:22.543Z,100356.08
2018-10-16T02:14:50.696Z,100353.86
2018-10-16T02:17:18.812Z,100357.95
2018-10-16T02:19:47.009Z,100360.41
2018-10-16T02:22:15.151Z,100359.35
2018-10-16T02:24:43.418Z,100357.48
2018-10-16T02:27:11.580Z,100352.63
2018-10-16T02:29:39.705Z,100353.77
2018-10-16T02:32:14.527Z,100356.97
2018-10-16T02:34:42.609Z,100360.64
2018-10-16T02:37:10.757Z,100360.20
2018-10-16T02:39:39.385Z,100364.55
2018-10-16T02:42:07.902Z,100377.14
2018-10-16T02:44:36.039Z,100378.38
2018-10-16T02:47:04.281Z,100380.84
2018-10-16T02:49:32.581Z,100377.52
2018-10-16T02:52:00.918Z,100373.54
2018-10-16T02:54:29.023Z,100370.75
2018-10-16T02:56:57.321Z,100374.62
2018-10-16T02:59:25.651Z,100367.00
2018-10-16T03:01:53.947Z,100367.83
2018-10-16T03:04:23.101Z,100368.53
2018-10-16T03:06:51.259Z,100367.13
2018-10-16T03:09:19.406Z,100382.00
2018-10-16T03:11:47.614Z,100379.02
2018-10-16T03:14:15.800Z,100383.26
2018-10-16T03:16:44.395Z,100384.16
2018-10-16T03:19:12.552Z,100394.44
2018-10-16T03:21:40.931Z,100397.46
2018-10-16T03:24:09.365Z,100399.29
2018-10-16T03:26:37.997Z,100394.52
2018-10-16T03:29:06.765Z,100391.87
2018-10-16T03:31:35.132Z,100393.86
2018-10-16T03:34:03.393Z,100384.21
2018-10-16T03:36:31.667Z,100381.33
2018-10-16T03:38:59.815Z,100380.05
2018-10-16T03:41:28.125Z,100379.80
2018-10-16T03:43:59.481Z,100382.85
2018-10-16T03:46:28.163Z,100385.68
2018-10-16T03:48:56.474Z,100381.86
2018-10-16T03:51:25.071Z,100386.79
2018-10-16T03:53:55.261Z,100393.86
2018-10-16T03:56:23.768Z,100392.80
2018-10-16T03:58:51.998Z,100399.70
2018-10-16T04:01:20.598Z,100400.28
2018-10-16T04:03:49.132Z,100400.31
2018-10-16T04:06:17.260Z,100398.31
2018-10-16T04:08:45.418Z,100400.76
2018-10-16T04:11:13.586Z,100397.73
2018-10-16T04:13:41.769Z,100392.64
2018-10-16T04:16:09.977Z,100390.64
2018-10-16T04:18:38.280Z,100393.02
2018-10-16T04:21:06.911Z,100397.27
2018-10-16T04:23:35.035Z,100406.23
2018-10-16T04:26:03.394Z,100413.03
2018-10-16T04:28:31.881Z,100412.88
2018-10-16T04:31:00.020Z,100417.88
2018-10-16T04:33:28.204Z,100419.20
2018-10-16T04:35:56.352Z,100418.95
2018-10-16T04:38:24.662Z,100420.21
2018-10-16T04:40:53.010Z,100417.07
2018-10-16T04:43:21.138Z,100422.28
2018-10-16T04:45:49.969Z,100422.17
2018-10-16T04:48:18.243Z,100420.59
2018-10-16T04:50:46.436Z,100427.50
2018-10-16T04:53:14.750Z,100426.55
2018-10-16T04:55:42.926Z,100427.08
2018-10-16T04:58:11.232Z,100427.41
2018-10-16T05:00:39.473Z,100428.00
2018-10-16T05:03:07.803Z,100433.39
2018-10-16T05:05:35.986Z,100432.34
2018-10-16T05:08:04.552Z,100431.14
2018-10-16T05:10:32.676Z,100430.96
2018-10-16T05:13:00.781Z,100428.03
2018-10-16T05:15:30.159Z,100436.11
2018-10-16T05:17:58.369Z,100435.50
2018-10-16T05:20:26.577Z,100437.06
2018-10-16T05:22:55.644Z,100435.18
2018-10-16T05:25:24.639Z,100441.66
2018-10-16T05:27:52.855Z,100438.58
2018-10-16T05:30:20.981Z,100435.31
2018-10-16T05:32:49.171Z,100436.48
2018-10-16T05:35:17.279Z,100432.25
2018-10-16T05:37:45.573Z,100439.05
2018-10-16T05:40:13.716Z,100456.80
2018-10-16T05:42:41.774Z,100466.48
2018-10-16T05:45:11.447Z,100472.59
2018-10-16T05:47:40.871Z,100468.52
2018-10-16T05:50:09.509Z,100462.98
2018-10-16T05:52:37.957Z,100458.81
2018-10-16T05:55:06.603Z,100458.92
2018-10-16T05:57:35.083Z,100457.38
2018-10-16T06:00:20.521Z,100448.47
2018-10-16T06:02:48.856Z,100446.23
2018-10-16T06:05:17.047Z,100452.98
2018-10-16T06:07:45.435Z,100457.91
2018-10-16T06:10:13.740Z,100461.05
2018-10-16T06:12:41.930Z,100465.36
2018-10-16T06:15:10.804Z,100470.50
2018-10-16T06:17:39.115Z,100460.86
2018-10-16T06:20:10.801Z,100459.88
2018-10-16T06:22:39.058Z,100453.93
2018-10-16T06:25:08.050Z,100461.94
2018-10-16T06:27:36.414Z,100472.83
2018-10-16T06:30:05.028Z,100478.89
2018-10-16T06:32:33.162Z,100477.27
2018-10-16T06:35:01.956Z,100485.01
2018-10-16T06:37:30.640Z,100481.57
2018-10-16T06:39:58.896Z,100485.08
2018-10-16T06:42:27.078Z,100491.97
2018-10-16T06:44:55.225Z,100484.28
2018-10-16T06:47:23.590Z,100483.89
2018-10-16T06:49:51.701Z,100494.44
2018-10-16T06:52:20.067Z,100506.22
2018-10-16T06:54:48.346Z,100510.72
2018-10-16T06:57:16.587Z,100507.80
2018-10-16T06:59:45.005Z,100516.92
2018-10-16T07:02:13.231Z,100524.25
2018-10-16T07:04:41.365Z,100525.36
2018-10-16T07:07:10.450Z,100527.20
2018-10-16T07:09:38.732Z,100523.60
2018-10-16T07:12:07.464Z,100530.12
2018-10-16T07:14:35.618Z,100524.30
2018-10-16T07:17:03.953Z,100535.45
2018-10-16T07:19:32.147Z,100530.62
2018-10-16T07:22:00.641Z,100533.64
2018-10-16T07:24:28.865Z,100530.00
2018-10-16T07:26:56.965Z,100531.94
2018-10-16T07:29:25.270Z,100530.02
2018-10-16T07:31:53.380Z,100528.03
2018-10-16T07:34:21.694Z,100516.44
2018-10-16T07:36:49.875Z,100514.87
2018-10-16T07:39:18.185Z,100511.63
2018-10-16T07:41:46.336Z,100507.36
2018-10-16T07:44:14.617Z,100510.02
2018-10-16T07:46:42.778Z,100508.19
2018-10-16T07:49:10.976Z,100512.55
2018-10-16T07:51:39.074Z,100509.02
2018-10-16T07:54:07.470Z,100515.64
2018-10-16T07:56:35.650Z,100520.11
2018-10-16T07:59:04.349Z,100523.80
2018-10-16T08:01:32.470Z,100526.66
2018-10-16T08:04:00.627Z,100526.65
2018-10-16T08:06:28.764Z,100523.15
2018-10-16T08:08:56.852Z,100527.30
2018-10-16T08:11:25.132Z,100533.30
2018-10-16T08:13:53.396Z,100531.44
2018-10-16T08:16:21.512Z,100543.84
2018-10-16T08:18:49.591Z,100547.64
2018-10-16T08:21:17.772Z,100543.36
2018-10-16T08:23:45.930Z,100541.48
2018-10-16T08:26:14.114Z,100544.26
2018-10-16T08:28:42.218Z,100536.66
2018-10-16T08:31:10.335Z,100538.67
2018-10-16T08:33:38.502Z,100531.36
2018-10-16T08:36:06.802Z,100532.02
2018-10-16T08:39:29.160Z,100536.13
2018-10-16T08:42:50.004Z,100536.23
2018-10-16T08:45:35.389Z,100534.59
2018-10-16T08:48:20.610Z,100528.19
2018-10-16T08:51:06.028Z,100527.42
2018-10-16T08:53:34.154Z,100524.32
2018-10-16T08:56:02.329Z,100508.92
2018-10-16T08:58:30.424Z,100512.50
2018-10-16T09:00:58.629Z,100507.75
2018-10-16T09:03:26.784Z,100516.20
2018-10-16T09:05:54.955Z,100516.23
2018-10-16T09:08:23.145Z,100523.34
2018-10-16T09:10:51.267Z,100522.09
2018-10-16T09:13:19.451Z,100530.81
2018-10-16T09:15:48.319Z,100532.16
2018-10-16T09:18:16.510Z,100535.46
2018-10-16T09:20:44.657Z,100545.91
2018-10-16T09:23:12.798Z,100537.07
2018-10-16T09:25:40.938Z,100541.14
2018-10-16T09:28:09.125Z,100539.87
2018-10-16T09:30:37.298Z,100546.98
2018-10-16T09:33:05.758Z,100543.33
2018-10-16T09:35:34.020Z,100544.79
2018-10-16T09:38:02.202Z,100551.81
2018-10-16T09:40:30.357Z,100552.80
2018-10-16T09:42:58.490Z,100553.36
2018-10-16T09:45:26.700Z,100553.23
2018-10-16T09:47:54.900Z,100550.86
2018-10-16T09:50:23.042Z,100548.53
2018-10-16T09:52:51.195Z,100551.16
2018-10-16T09:55:19.352Z,100544.25
2018-10-16T09:57:47.525Z,100543.15
2018-10-16T10:00:21.426Z,100550.53
2018-10-16T10:02:49.614Z,100551.86
2018-10-16T10:05:17.739Z,100546.27
2018-10-16T10:07:45.998Z,100545.56
2018-10-16T10:10:14.167Z,100554.23
2018-10-16T10:12:49.043Z,100555.94
2018-10-16T10:15:17.153Z,100545.35
2018-10-16T10:17:45.295Z,100550.59
2018-10-16T10:20:13.490Z,100552.00
2018-10-16T10:22:41.675Z,100554.50
2018-10-16T10:25:09.960Z,100552.05
2018-10-16T10:27:38.145Z,100557.53
2018-10-16T10:30:10.124Z,100555.91
2018-10-16T10:32:38.308Z,100554.42
2018-10-16T10:35:08.614Z,100552.49
2018-10-16T10:37:36.791Z,100552.59
2018-10-16T10:40:05.405Z,100549.44
2018-10-16T10:42:33.607Z,100549.00
2018-10-16T10:45:02.013Z,100544.72
2018-10-16T10:47:30.293Z,100551.55
2018-10-16T10:49:58.535Z,100545.56
2018-10-16T10:52:26.642Z,100550.66
2018-10-16T10:54:54.768Z,100551.66
2018-10-16T10:57:22.875Z,100549.59
2018-10-16T10:59:51.042Z,100552.59
2018-10-16T11:02:19.161Z,100544.45
2018-10-16T11:04:47.344Z,100555.54
2018-10-16T11:07:15.476Z,100555.69
2018-10-16T11:09:43.623Z,100551.80
2018-10-16T11:12:11.743Z,100550.78
2018-10-16T11:14:46.703Z,100549.23
2018-10-16T11:17:14.857Z,100545.84
2018-10-16T11:19:43.027Z,100548.92
2018-10-16T11:22:12.051Z,100544.47
2018-10-16T11:24:40.185Z,100546.45
2018-10-16T11:27:08.399Z,100545.64
2018-10-16T11:29:36.525Z,100551.47
2018-10-16T11:32:04.789Z,100545.77
2018-10-16T11:34:32.985Z,100548.72
2018-10-16T11:37:01.223Z,100552.03
2018-10-16T11:39:29.340Z,100558.48
2018-10-16T11:41:57.765Z,100559.02
2018-10-16T11:44:25.943Z,100561.65
2018-10-16T11:46:54.111Z,100556.58
2018-10-16T11:49:22.280Z,100550.66
2018-10-16T11:51:50.472Z,100548.48
2018-10-16T11:54:18.644Z,100551.91
2018-10-16T11:56:46.791Z,100548.09
2018-10-16T11:59:14.964Z,100546.33
2018-10-16T12:01:43.151Z,100553.01
2018-10-16T12:04:11.249Z,100552.56
2018-10-16T12:06:39.399Z,100551.55
2018-10-16T12:09:09.110Z,100558.08
2018-10-16T12:11:38.097Z,100553.25
2018-10-16T12:14:06.995Z,100557.50
2018-10-16T12:16:39.706Z,100550.89
2018-10-16T12:19:13.246Z,100556.25
2018-10-16T12:21:41.388Z,100556.53
2018-10-16T12:24:09.596Z,100564.77
2018-10-16T12:26:37.718Z,100564.61
2018-10-16T12:29:05.949Z,100558.58
2018-10-16T12:31:34.104Z,100556.91
2018-10-16T12:34:02.285Z,100558.70
2018-10-16T12:36:30.516Z,100562.87
2018-10-16T12:38:58.720Z,100554.57
2018-10-16T12:41:26.917Z,100557.84
2018-10-16T12:43:55.178Z,100560.11
2018-10-16T12:46:23.322Z,100560.13
2018-10-16T12:48:51.500Z,100566.94
2018-10-16T12:51:19.757Z,100562.33
2018-10-16T12:53:47.913Z,100559.19
2018-10-16T12:56:16.168Z,100567.55
2018-10-16T12:58:44.217Z,100571.09
2018-10-16T13:01:12.371Z,100569.02
2018-10-16T13:03:40.641Z,100570.03
2018-10-16T13:06:08.750Z,100573.34
2018-10-16T13:08:36.960Z,100573.34
2018-10-16T13:11:05.377Z,100575.73
2018-10-16T13:13:33.392Z,100578.75
2018-10-16T13:16:01.521Z,100579.44
2018-10-16T13:18:29.584Z,100578.94
2018-10-16T13:20:57.747Z,100583.41
2018-10-16T13:23:25.980Z,100586.82
2018-10-16T13:25:54.151Z,100581.05
2018-10-16T13:28:22.308Z,100574.41
2018-10-16T13:30:50.474Z,100578.73
2018-10-16T13:33:18.704Z,100582.63
2018-10-16T13:35:46.855Z,100576.13
2018-10-16T13:38:15.759Z,100584.12
2018-10-16T13:40:43.910Z,100587.21
2018-10-16T13:43:12.072Z,100591.11
2018-10-16T13:45:40.233Z,100588.43
2018-10-16T13:48:08.399Z,100579.70
2018-10-16T13:50:36.465Z,100576.71
2018-10-16T13:53:04.991Z,100572.37
2018-10-16T13:55:33.103Z,100572.89
2018-10-16T13:58:01.288Z,100584.46
2018-10-16T14:00:29.440Z,100581.45
2018-10-16T14:02:57.593Z,100586.65
2018-10-16T14:05:25.816Z,100588.55
2018-10-16T14:07:53.991Z,100590.20
2018-10-16T14:10:22.210Z,100588.55
2018-10-16T14:12:50.409Z,100588.00
2018-10-16T14:15:18.614Z,100592.11
2018-10-16T14:17:46.782Z,100592.38
2018-10-16T14:20:15.042Z,100589.37
2018-10-16T14:22:43.543Z,100591.82
2018-10-16T14:25:13.060Z,100592.94
2018-10-16T14:27:41.590Z,100594.58
2018-10-16T14:30:11.593Z,100590.20
2018-10-16T14:32:40.127Z,100596.51
2018-10-16T14:35:09.254Z,100598.40
2018-10-16T14:37:38.015Z,100600.59
2018-10-16T14:40:08.128Z,100605.52
2018-10-16T14:42:36.262Z,100596.22
2018-10-16T14:45:05.339Z,100594.02
2018-10-16T14:47:33.554Z,100592.66
2018-10-16T14:50:01.822Z,100594.58
2018-10-16T14:52:29.918Z,100597.31
2018-10-16T14:54:58.145Z,100591.77
2018-10-16T14:57:26.362Z,100600.22
2018-10-16T14:59:55.180Z,100593.95
2018-10-16T15:02:23.305Z,100595.88
2018-10-16T15:04:51.610Z,100599.66
2018-10-16T15:07:19.845Z,100602.41
2018-10-16T15:09:48.006Z,100598.85
2018-10-16T15:12:16.138Z,100595.88
2018-10-16T15:14:44.306Z,100603.05
2018-10-16T15:17:12.501Z,100600.61
2018-10-16T15:19:40.695Z,100614.30
2018-10-16T15:22:08.889Z,100609.07
2018-10-16T15:24:37.068Z,100606.61
2018-10-16T15:27:05.279Z,100604.98
2018-10-16T15:29:40.138Z,100605.23
2018-10-16T15:32:08.575Z,100601.41
2018-10-16T15:34:36.653Z,100606.33
2018-10-16T15:37:05.577Z,100602.47
2018-10-16T15:39:33.741Z,100604.38
2018-10-16T15:42:02.148Z,100605.73
2018-10-16T15:44:30.314Z,100605.18
2018-10-16T15:46:58.567Z,100605.69
2018-10-16T15:49:26.765Z,100605.35
2018-10-16T15:51:54.911Z,100609.41
2018-10-16T15:54:23.380Z,100621.09
2018-10-16T15:56:52.609Z,100623.17
2018-10-16T15:59:20.841Z,100629.16
2018-10-16T16:01:49.214Z,100633.77
2018-10-16T16:04:17.440Z,100628.55
2018-10-16T16:06:45.790Z,100634.74
2018-10-16T16:09:14.186Z,100646.13
2018-10-16T16:11:42.528Z,100647.16
2018-10-16T16:14:10.754Z,100647.95
2018-10-16T16:16:38.867Z,100647.20
2018-10-16T16:19:07.224Z,100641.92
2018-10-16T16:21:35.596Z,100644.91
2018-10-16T16:24:03.950Z,100645.97
2018-10-16T16:26:32.102Z,100646.98
2018-10-16T16:29:00.259Z,100646.12
2018-10-16T16:31:28.419Z,100652.85
2018-10-16T16:33:56.642Z,100654.66
2018-10-16T16:36:24.769Z,100659.95
2018-10-16T16:38:53.161Z,100649.16
2018-10-16T16:41:21.335Z,100655.98
2018-10-16T16:43:49.518Z,100658.91
2018-10-16T16:46:17.621Z,100665.87
2018-10-16T16:48:45.969Z,100663.83
2018-10-16T16:51:14.335Z,100670.77
2018-10-16T16:53:42.432Z,100670.05
2018-10-16T16:56:10.670Z,100668.19
2018-10-16T16:58:38.818Z,100664.11
2018-10-16T17:01:06.976Z,100662.34
2018-10-16T17:03:35.159Z,100666.04
2018-10-16T17:06:03.426Z,100672.28
2018-10-16T17:08:31.605Z,100672.28
2018-10-16T17:10:59.772Z,100669.89
2018-10-16T17:13:27.945Z,100674.87
2018-10-16T17:15:56.954Z,100677.47
2018-10-16T17:18:25.090Z,100678.06
2018-10-16T17:20:53.184Z,100674.44
2018-10-16T17:23:21.368Z,100677.41
2018-10-16T17:25:49.911Z,100673.91
2018-10-16T17:28:17.801Z,100670.07
2018-10-16T17:30:45.946Z,100679.27
2018-10-16T17:33:14.266Z,100680.56
2018-10-16T17:35:42.332Z,100679.62
2018-10-16T17:38:10.543Z,100684.14
2018-10-16T17:40:39.194Z,100685.11
2018-10-16T17:43:07.329Z,100683.22
2018-10-16T17:45:35.449Z,100679.59
2018-10-16T17:48:03.837Z,100683.64
2018-10-16T17:50:32.109Z,100689.94
2018-10-16T17:53:00.304Z,100692.58
2018-10-16T17:55:28.491Z,100689.28
2018-10-16T17:58:03.058Z,100689.53
2018-10-16T18:00:31.300Z,100687.94
2018-10-16T18:02:59.456Z,100693.95
2018-10-16T18:05:27.617Z,100693.88
2018-10-16T18:07:55.793Z,100693.20
2018-10-16T18:10:23.985Z,100693.14
2018-10-16T18:12:52.164Z,100684.22
2018-10-16T18:15:20.951Z,100693.02
2018-10-16T18:17:49.137Z,100695.67
2018-10-16T18:20:17.323Z,100693.41
2018-10-16T18:22:45.773Z,100698.01
2018-10-16T18:25:13.905Z,100693.34
2018-10-16T18:27:43.028Z,100696.80
2018-10-16T18:30:11.449Z,100700.95
2018-10-16T18:32:39.866Z,100699.14
2018-10-16T18:35:08.457Z,100699.14
2018-10-16T18:37:36.675Z,100702.17
2018-10-16T18:40:07.004Z,100701.75
2018-10-16T18:42:35.152Z,100700.64
2018-10-16T18:45:04.299Z,100697.36
2018-10-16T18:47:32.484Z,100700.69
2018-10-16T18:50:00.677Z,100709.14
2018-10-16T18:52:29.547Z,100711.19
2018-10-16T18:54:57.761Z,100709.59
2018-10-16T18:57:25.949Z,100706.69
2018-10-16T18:59:54.802Z,100709.36
2018-10-16T19:02:23.241Z,100712.08
2018-10-16T19:04:51.454Z,100712.08
2018-10-16T19:07:19.649Z,100713.44
2018-10-16T19:09:47.902Z,100715.80
2018-10-16T19:12:16.122Z,100725.57
2018-10-16T19:14:44.426Z,100726.81
2018-10-16T19:17:12.634Z,100729.45
2018-10-16T19:19:40.922Z,100720.66
2018-10-16T19:22:09.152Z,100719.50
2018-10-16T19:24:37.674Z,100717.11
2018-10-16T19:27:06.339Z,100717.81
2018-10-16T19:29:35.234Z,100713.26
2018-10-16T19:32:03.671Z,100707.55
2018-10-16T19:34:31.890Z,100708.80
2018-10-16T19:37:00.627Z,100711.51
2018-10-16T19:39:28.974Z,100707.36
2018-10-16T19:41:57.224Z,100697.02
2018-10-16T19:44:25.596Z,100704.74
2018-10-16T19:46:53.922Z,100705.97
2018-10-16T19:49:22.096Z,100701.17
2018-10-16T19:51:50.288Z,100707.48
2018-10-16T19:54:18.637Z,100709.41
2018-10-16T19:56:46.867Z,100708.70
2018-10-16T19:59:15.037Z,100705.58
2018-10-16T20:01:43.299Z,100709.91
2018-10-16T20:04:12.027Z,100709.80
2018-10-16T20:06:40.180Z,100702.66
2018-10-16T20:09:10.208Z,100707.14
2018-10-16T20:11:38.442Z,100705.31
2018-10-16T20:14:07.405Z,100707.88
2018-10-16T20:16:35.561Z,100706.36
2018-10-16T20:19:03.919Z,100706.17
2018-10-16T20:21:33.113Z,100703.28
2018-10-16T20:24:01.342Z,100709.59
2018-10-16T20:26:29.614Z,100699.28
2018-10-16T20:28:57.860Z,100686.60
2018-10-16T20:31:26.027Z,100695.05
2018-10-16T20:33:54.246Z,100704.63
2018-10-16T20:36:22.437Z,100704.45
2018-10-16T20:38:51.186Z,100706.14
2018-10-16T20:41:19.450Z,100706.78
2018-10-16T20:43:47.671Z,100699.41
2018-10-16T20:46:15.916Z,100709.48
2018-10-16T20:48:44.220Z,100706.92
2018-10-16T20:51:12.415Z,100701.23
2018-10-16T20:53:40.558Z,100698.47
2018-10-16T20:56:09.429Z,100701.33
2018-10-16T20:58:37.570Z,100699.08
2018-10-16T21:01:07.021Z,100699.78
2018-10-16T21:03:35.218Z,100706.09
2018-10-16T21:06:05.279Z,100705.14
2018-10-16T21:08:33.475Z,100708.39
2018-10-16T21:11:01.616Z,100702.22
2018-10-16T21:13:29.812Z,100696.88
2018-10-16T21:15:59.248Z,100701.91
2018-10-16T21:18:28.339Z,100705.58
2018-10-16T21:20:57.073Z,100696.80
2018-10-16T21:23:25.202Z,100700.80
2018-10-16T21:25:53.804Z,100699.35
2018-10-16T21:28:22.026Z,100700.86
2018-10-16T21:30:50.192Z,100697.31
2018-10-16T21:33:18.326Z,100690.48
2018-10-16T21:35:46.469Z,100687.84
2018-10-16T21:38:15.294Z,100690.33
2018-10-16T21:40:43.458Z,100699.43
2018-10-16T21:43:11.780Z,100700.27
2018-10-16T21:45:39.895Z,100700.47
2018-10-16T21:48:08.300Z,100698.07
2018-10-16T21:50:36.452Z,100700.34
2018-10-16T21:53:04.688Z,100697.23
2018-10-16T21:55:32.800Z,100699.96
2018-10-16T21:58:01.201Z,100706.80
2018-10-16T22:00:37.924Z,100705.14
2018-10-16T22:03:06.272Z,100706.17
2018-10-16T22:05:34.554Z,100712.33
2018-10-16T22:08:02.782Z,100707.98
2018-10-16T22:10:31.458Z,100704.75
2018-10-16T22:12:59.612Z,100711.30
2018-10-16T22:15:27.797Z,100707.52
2018-10-16T22:17:55.961Z,100709.89
2018-10-16T22:20:24.102Z,100711.56
2018-10-16T22:22:52.356Z,100709.69
2018-10-16T22:25:21.054Z,100714.95
2018-10-16T22:27:49.215Z,100707.89
2018-10-16T22:30:17.428Z,100709.02
2018-10-16T22:32:46.175Z,100710.83
2018-10-16T22:35:14.595Z,100709.31
2018-10-16T22:37:43.317Z,100713.92
2018-10-16T22:40:11.494Z,100714.14
2018-10-16T22:42:39.653Z,100706.83
2018-10-16T22:45:08.415Z,100705.48
2018-10-16T22:47:36.639Z,100706.06
2018-10-16T22:50:08.600Z,100714.56
2018-10-16T22:52:36.711Z,100716.36
2018-10-16T22:55:06.146Z,100711.08
2018-10-16T22:57:34.175Z,100710.80
2018-10-16T23:00:02.483Z,100716.05
2018-10-16T23:02:30.620Z,100710.51
2018-10-16T23:04:59.683Z,100703.12
2018-10-16T23:07:27.779Z,100705.37
2018-10-16T23:09:57.085Z,100713.39
2018-10-16T23:12:26.187Z,100711.52
2018-10-16T23:14:55.147Z,100717.80
2018-10-16T23:17:23.299Z,100715.81
2018-10-16T23:19:51.472Z,100714.05
2018-10-16T23:22:20.294Z,100707.28
2018-10-16T23:24:48.592Z,100716.61
2018-10-16T23:27:16.837Z,100716.22
2018-10-16T23:29:45.251Z,100708.91
2018-10-16T23:32:13.370Z,100703.14
2018-10-16T23:34:41.657Z,100703.08
2018-10-16T23:37:09.991Z,100705.30
2018-10-16T23:39:38.092Z,100703.72
2018-10-16T23:42:06.459Z,100705.62
2018-10-16T23:44:34.570Z,100701.85
2018-10-16T23:47:02.962Z,100699.31
2018-10-16T23:49:31.170Z,100697.63
2018-10-16T23:51:59.462Z,100703.77
2018-10-16T23:54:27.780Z,100701.86
2018-10-16T23:56:56.124Z,100701.84
2018-10-16T23:59:24.238Z,100702.13
